createdAt,value
2023-08-27T00:00:20.714Z,88.60
2023-08-27T00:02:50.045Z,88.70
2023-08-27T00:05:17.075Z,88.60
2023-08-27T00:07:44.041Z,88.70
2023-08-27T00:10:13.491Z,88.90
2023-08-27T00:12:42.968Z,89.00
2023-08-27T00:15:10.205Z,89.10
2023-08-27T00:17:39.815Z,89.00
2023-08-27T00:20:11.636Z,88.80
2023-08-27T00:22:41.601Z,88.80
2023-08-27T00:25:11.134Z,88.70
2023-08-27T00:27:38.264Z,88.70
2023-08-27T00:30:10.432Z,88.70
2023-08-27T00:32:37.446Z,88.90
2023-08-27T00:35:05.122Z,89.00
2023-08-27T00:37:35.394Z,89.20
2023-08-27T00:40:05.744Z,89.30
2023-08-27T00:42:32.816Z,89.10
2023-08-27T00:45:01.952Z,89.00
2023-08-27T00:47:31.692Z,88.80
2023-08-27T00:50:01.075Z,89.00
2023-08-27T00:52:28.079Z,89.10
2023-08-27T00:54:59.825Z,89.40
2023-08-27T00:57:27.267Z,89.40
2023-08-27T00:59:55.244Z,89.50
2023-08-27T01:02:26.582Z,89.60
2023-08-27T01:04:56.101Z,89.30
2023-08-27T01:07:32.760Z,89.30
2023-08-27T01:10:30.517Z,89.10
2023-08-27T01:13:09.833Z,89.30
2023-08-27T01:15:36.804Z,89.50
2023-08-27T01:18:04.492Z,89.50
2023-08-27T01:20:33.785Z,89.40
2023-08-27T01:23:03.193Z,89.10
2023-08-27T01:25:45.498Z,88.90
2023-08-27T01:28:23.351Z,88.90
2023-08-27T01:31:13.142Z,88.90
2023-08-27T01:33:50.649Z,88.80
2023-08-27T01:36:18.573Z,89.00
2023-08-27T01:38:47.602Z,88.90
2023-08-27T01:41:16.875Z,88.90
2023-08-27T01:43:43.979Z,88.60
2023-08-27T01:46:15.862Z,88.60
2023-08-27T01:48:42.874Z,88.60
2023-08-27T01:51:09.857Z,88.60
2023-08-27T01:53:36.842Z,88.90
2023-08-27T01:56:05.382Z,88.90
2023-08-27T01:58:36.882Z,89.00
2023-08-27T02:01:04.177Z,89.20
2023-08-27T02:03:31.248Z,89.00
2023-08-27T02:06:00.779Z,89.10
2023-08-27T02:08:32.449Z,89.20
2023-08-27T02:11:06.726Z,89.30
2023-08-27T02:13:33.767Z,89.00
2023-08-27T02:16:05.374Z,88.90
2023-08-27T02:18:32.381Z,88.70
2023-08-27T02:21:01.510Z,88.70
2023-08-27T02:23:30.706Z,88.90
2023-08-27T02:25:57.693Z,89.00
2023-08-27T02:28:27.469Z,88.90
2023-08-27T02:30:59.656Z,88.90
2023-08-27T02:33:26.648Z,88.90
2023-08-27T02:35:56.179Z,88.80
2023-08-27T02:38:26.165Z,88.90
2023-08-27T02:40:53.480Z,88.60
2023-08-27T02:43:20.416Z,88.40
2023-08-27T02:45:49.575Z,88.20
2023-08-27T02:48:16.552Z,88.50
2023-08-27T02:50:43.515Z,88.30
2023-08-27T02:53:12.657Z,88.10
2023-08-27T02:55:42.229Z,88.10
2023-08-27T02:58:09.262Z,88.40
2023-08-27T03:00:40.658Z,88.40
2023-08-27T03:03:15.429Z,88.40
2023-08-27T03:05:42.627Z,88.30
2023-08-27T03:08:09.901Z,88.30
2023-08-27T03:10:39.146Z,88.20
2023-08-27T03:13:08.618Z,88.00
2023-08-27T03:15:38.165Z,88.20
2023-08-27T03:18:07.632Z,88.30
2023-08-27T03:20:34.725Z,88.40
2023-08-27T03:23:03.104Z,88.60
2023-08-27T03:25:32.346Z,88.90
2023-08-27T03:28:03.675Z,88.90
2023-08-27T03:30:36.964Z,88.90
2023-08-27T03:33:11.061Z,89.20
2023-08-27T03:35:40.285Z,89.30
2023-08-27T03:38:09.532Z,89.00
2023-08-27T03:40:36.523Z,89.10
2023-08-27T03:43:05.824Z,89.50
2023-08-27T03:45:34.958Z,89.50
2023-08-27T03:48:02.724Z,89.80
2023-08-27T03:50:32.749Z,89.90
2023-08-27T03:53:02.311Z,89.80
2023-08-27T03:55:31.919Z,89.70
2023-08-27T03:58:03.562Z,89.70
2023-08-27T04:00:30.553Z,89.70
2023-08-27T04:02:57.550Z,89.80
2023-08-27T04:05:24.592Z,89.90
2023-08-27T04:07:56.206Z,89.80
2023-08-27T04:10:23.222Z,89.70
2023-08-27T04:12:50.365Z,89.70
2023-08-27T04:15:19.756Z,89.80
2023-08-27T04:17:46.908Z,89.40
2023-08-27T04:20:13.990Z,89.50
2023-08-27T04:22:43.814Z,89.60
2023-08-27T04:25:18.198Z,89.60
2023-08-27T04:27:48.850Z,89.50
2023-08-27T04:30:16.085Z,89.40
2023-08-27T04:32:44.290Z,89.60
2023-08-27T04:35:15.880Z,89.50
2023-08-27T04:37:43.033Z,89.40
2023-08-27T04:40:12.798Z,89.40
2023-08-27T04:42:39.780Z,89.20
2023-08-27T04:45:10.281Z,89.20
2023-08-27T04:47:37.282Z,89.60
2023-08-27T04:50:04.451Z,89.40
2023-08-27T04:52:32.883Z,89.70
2023-08-27T04:55:03.949Z,89.70
2023-08-27T04:57:31.653Z,89.70
2023-08-27T05:00:14.589Z,89.80
2023-08-27T05:02:47.133Z,89.70
2023-08-27T05:05:16.876Z,89.60
2023-08-27T05:07:46.534Z,89.60
2023-08-27T05:10:18.536Z,89.40
2023-08-27T05:12:47.827Z,89.50
2023-08-27T05:15:17.472Z,89.70
2023-08-27T05:17:49.493Z,90.00
2023-08-27T05:20:17.032Z,90.50
2023-08-27T05:22:44.192Z,90.60
2023-08-27T05:25:11.503Z,90.60
2023-08-27T05:27:45.506Z,90.60
2023-08-27T05:30:15.943Z,90.40
2023-08-27T05:32:43.307Z,90.00
2023-08-27T05:35:10.894Z,90.30
2023-08-27T05:37:38.031Z,90.00
2023-08-27T05:40:10.038Z,90.20
2023-08-27T05:42:37.254Z,90.00
2023-08-27T05:45:04.623Z,89.70
2023-08-27T05:47:32.018Z,89.80
2023-08-27T05:49:59.020Z,89.80
2023-08-27T05:52:28.923Z,89.80
2023-08-27T05:54:59.083Z,89.90
2023-08-27T05:57:28.360Z,89.70
2023-08-27T05:59:57.537Z,89.70
2023-08-27T06:02:25.346Z,89.40
2023-08-27T06:04:53.112Z,89.20
2023-08-27T06:07:22.665Z,89.20
2023-08-27T06:09:49.659Z,89.20
2023-08-27T06:12:21.452Z,89.20
2023-08-27T06:14:48.975Z,88.60
2023-08-27T06:17:15.984Z,88.70
2023-08-27T06:19:49.136Z,88.40
2023-08-27T06:22:21.328Z,88.70
2023-08-27T06:24:48.497Z,88.10
2023-08-27T06:27:20.119Z,87.20
2023-08-27T06:29:47.683Z,83.80
2023-08-27T06:32:17.578Z,81.20
2023-08-27T06:34:47.321Z,81.00
2023-08-27T06:37:14.376Z,78.20
2023-08-27T06:39:46.055Z,75.30
2023-08-27T06:42:15.846Z,73.10
2023-08-27T06:44:42.835Z,73.80
2023-08-27T06:47:12.951Z,71.10
2023-08-27T06:49:42.191Z,71.50
2023-08-27T06:52:10.894Z,71.40
2023-08-27T06:54:37.940Z,69.50
2023-08-27T06:57:06.034Z,69.10
2023-08-27T06:59:35.226Z,68.60
2023-08-27T07:02:02.233Z,69.50
2023-08-27T07:04:33.055Z,68.10
2023-08-27T07:07:00.046Z,69.20
2023-08-27T07:09:30.132Z,68.60
2023-08-27T07:11:59.596Z,67.80
2023-08-27T07:14:32.096Z,68.10
2023-08-27T07:17:01.273Z,68.40
2023-08-27T07:19:30.171Z,69.90
2023-08-27T07:21:58.647Z,71.40
2023-08-27T07:24:28.380Z,72.60
2023-08-27T07:26:55.410Z,73.70
2023-08-27T07:29:25.281Z,74.40
2023-08-27T07:31:55.908Z,73.20
2023-08-27T07:34:23.814Z,71.20
2023-08-27T07:36:52.876Z,70.50
2023-08-27T07:39:23.343Z,71.50
2023-08-27T07:41:50.640Z,72.90
2023-08-27T07:44:18.030Z,75.10
2023-08-27T07:46:47.368Z,75.50
2023-08-27T07:49:14.445Z,74.90
2023-08-27T07:51:47.225Z,76.60
2023-08-27T07:54:19.353Z,76.80
2023-08-27T07:56:48.920Z,76.60
2023-08-27T07:59:21.768Z,77.90
2023-08-27T08:01:48.769Z,77.90
2023-08-27T08:04:19.231Z,77.50
2023-08-27T08:06:48.394Z,76.50
2023-08-27T08:09:17.901Z,78.30
2023-08-27T08:11:44.836Z,77.80
2023-08-27T08:14:14.290Z,77.40
2023-08-27T08:16:43.502Z,76.90
2023-08-27T08:19:10.617Z,77.00
2023-08-27T08:21:42.194Z,77.40
2023-08-27T08:24:11.738Z,77.50
2023-08-27T08:26:40.801Z,77.30
2023-08-27T08:29:12.957Z,77.10
2023-08-27T08:31:44.428Z,77.20
2023-08-27T08:34:11.400Z,77.00
2023-08-27T08:36:38.406Z,75.90
2023-08-27T08:39:09.697Z,76.00
2023-08-27T08:41:39.806Z,76.40
2023-08-27T08:44:21.783Z,77.10
2023-08-27T08:46:51.475Z,77.20
2023-08-27T08:49:18.529Z,76.70
2023-08-27T08:51:45.491Z,76.70
2023-08-27T08:54:17.074Z,75.70
2023-08-27T08:56:49.600Z,74.80
2023-08-27T08:59:16.624Z,75.60
2023-08-27T09:01:43.595Z,75.00
2023-08-27T09:04:13.528Z,75.70
2023-08-27T09:06:46.055Z,74.60
2023-08-27T09:09:13.103Z,74.50
2023-08-27T09:11:40.055Z,74.50
2023-08-27T09:14:09.112Z,75.70
2023-08-27T09:16:36.113Z,75.00
2023-08-27T09:19:03.190Z,74.60
2023-08-27T09:21:30.957Z,74.50
2023-08-27T09:24:02.718Z,74.80
2023-08-27T09:26:35.000Z,74.40
2023-08-27T09:29:06.700Z,73.90
2023-08-27T09:31:46.221Z,74.30
2023-08-27T09:34:18.092Z,75.40
2023-08-27T09:36:45.119Z,74.30
2023-08-27T09:39:12.869Z,73.30
2023-08-27T09:41:45.666Z,73.20
2023-08-27T09:44:13.990Z,73.90
2023-08-27T09:46:43.761Z,73.10
2023-08-27T09:49:13.143Z,72.50
2023-08-27T09:51:43.319Z,70.30
2023-08-27T09:54:20.880Z,69.30
2023-08-27T09:56:48.957Z,70.70
2023-08-27T09:59:19.244Z,71.20
2023-08-27T10:01:52.413Z,71.60
2023-08-27T10:04:22.206Z,70.00
2023-08-27T10:06:49.415Z,69.50
2023-08-27T10:09:17.214Z,69.70
2023-08-27T10:11:47.444Z,69.50
2023-08-27T10:14:17.669Z,69.30
2023-08-27T10:16:47.214Z,68.70
2023-08-27T10:19:14.235Z,69.00
2023-08-27T10:21:41.237Z,68.70
2023-08-27T10:24:10.363Z,68.20
2023-08-27T10:26:39.545Z,66.00
2023-08-27T10:29:06.504Z,67.80
2023-08-27T10:31:33.503Z,67.40
2023-08-27T10:34:04.715Z,67.20
2023-08-27T10:36:36.306Z,67.00
2023-08-27T10:39:06.388Z,67.10
2023-08-27T10:41:36.388Z,66.80
2023-08-27T10:44:07.181Z,66.20
2023-08-27T10:46:38.596Z,66.50
2023-08-27T10:49:16.202Z,65.60
2023-08-27T10:51:45.231Z,64.60
2023-08-27T10:54:27.562Z,65.00
2023-08-27T10:56:56.438Z,64.10
2023-08-27T10:59:31.976Z,65.10
2023-08-27T11:02:09.643Z,65.00
2023-08-27T11:04:43.318Z,62.90
2023-08-27T11:07:16.138Z,64.50
2023-08-27T11:09:47.816Z,64.70
2023-08-27T11:12:27.717Z,63.90
2023-08-27T11:14:55.272Z,63.90
2023-08-27T11:17:33.100Z,63.90
2023-08-27T11:20:00.801Z,63.40
2023-08-27T11:22:27.778Z,64.40
2023-08-27T11:24:58.032Z,65.00
2023-08-27T11:27:31.598Z,65.10
2023-08-27T11:29:58.616Z,64.90
2023-08-27T11:32:28.070Z,64.40
2023-08-27T11:34:55.173Z,64.10
2023-08-27T11:37:33.930Z,63.50
2023-08-27T11:40:00.972Z,61.50
2023-08-27T11:42:27.938Z,62.40
2023-08-27T11:44:59.591Z,61.90
2023-08-27T11:47:33.369Z,59.70
2023-08-27T11:50:02.958Z,60.10
2023-08-27T11:52:35.843Z,59.50
2023-08-27T11:55:08.616Z,60.40
2023-08-27T11:57:35.654Z,59.00
2023-08-27T12:00:13.879Z,58.80
2023-08-27T12:02:45.574Z,58.00
2023-08-27T12:05:14.701Z,58.10
2023-08-27T12:07:41.651Z,57.30
2023-08-27T12:10:10.223Z,57.00
2023-08-27T12:12:41.545Z,56.20
2023-08-27T12:15:09.887Z,57.40
2023-08-27T12:17:37.787Z,56.80
2023-08-27T12:20:08.816Z,55.30
2023-08-27T12:22:47.375Z,56.80
2023-08-27T12:25:14.752Z,56.70
2023-08-27T12:27:42.231Z,57.00
2023-08-27T12:30:11.124Z,57.10
2023-08-27T12:32:38.186Z,57.30
2023-08-27T12:35:09.658Z,57.70
2023-08-27T12:37:36.692Z,57.40
2023-08-27T12:40:07.107Z,56.70
2023-08-27T12:42:36.278Z,57.60
2023-08-27T12:45:03.438Z,56.80
2023-08-27T12:47:32.948Z,57.50
2023-08-27T12:50:02.093Z,57.30
2023-08-27T12:52:29.093Z,57.60
2023-08-27T12:54:56.031Z,57.40
2023-08-27T12:57:23.068Z,58.10
2023-08-27T12:59:52.110Z,57.70
2023-08-27T13:02:19.273Z,58.50
2023-08-27T13:04:46.837Z,57.40
2023-08-27T13:07:14.030Z,57.30
2023-08-27T13:09:45.483Z,58.80
2023-08-27T13:12:12.501Z,58.60
2023-08-27T13:14:41.560Z,56.80
2023-08-27T13:17:10.570Z,55.50
2023-08-27T13:19:37.549Z,57.60
2023-08-27T13:22:06.939Z,56.50
2023-08-27T13:24:33.878Z,57.30
2023-08-27T13:27:05.744Z,58.00
2023-08-27T13:29:35.506Z,58.20
2023-08-27T13:32:02.564Z,59.20
2023-08-27T13:34:34.648Z,59.00
2023-08-27T13:37:03.812Z,57.40
2023-08-27T13:39:35.530Z,56.50
2023-08-27T13:42:05.262Z,57.50
2023-08-27T13:44:32.243Z,56.80
2023-08-27T13:47:04.695Z,57.00
2023-08-27T13:49:31.717Z,57.80
2023-08-27T13:51:58.648Z,55.10
2023-08-27T13:54:28.007Z,54.50
2023-08-27T13:56:59.813Z,54.60
2023-08-27T13:59:29.744Z,55.70
2023-08-27T14:02:01.553Z,55.00
2023-08-27T14:04:28.536Z,56.10
2023-08-27T14:06:58.575Z,55.90
2023-08-27T14:09:25.545Z,56.20
2023-08-27T14:11:52.518Z,55.30
2023-08-27T14:14:19.525Z,56.50
2023-08-27T14:16:49.014Z,56.20
2023-08-27T14:19:18.324Z,56.20
2023-08-27T14:21:47.629Z,54.70
2023-08-27T14:24:22.593Z,55.10
2023-08-27T14:26:49.583Z,55.80
2023-08-27T14:29:18.697Z,56.80
2023-08-27T14:31:48.180Z,55.90
2023-08-27T14:34:19.676Z,57.70
2023-08-27T14:36:51.671Z,57.80
2023-08-27T14:39:18.728Z,57.90
2023-08-27T14:41:48.087Z,57.70
2023-08-27T14:44:19.314Z,58.80
2023-08-27T14:46:49.068Z,58.70
2023-08-27T14:49:16.087Z,58.70
2023-08-27T14:51:47.344Z,58.60
2023-08-27T14:54:16.883Z,58.20
2023-08-27T14:56:47.158Z,57.80
2023-08-27T14:59:40.693Z,58.60
2023-08-27T15:02:16.387Z,56.80
2023-08-27T15:04:43.798Z,57.50
2023-08-27T15:07:15.178Z,58.00
2023-08-27T15:09:42.127Z,58.50
2023-08-27T15:12:24.167Z,59.00
2023-08-27T15:14:53.641Z,58.90
2023-08-27T15:17:23.260Z,58.70
2023-08-27T15:19:50.420Z,58.50
2023-08-27T15:22:24.258Z,58.80
2023-08-27T15:24:53.459Z,58.70
2023-08-27T15:27:22.908Z,59.20
2023-08-27T15:29:49.901Z,59.60
2023-08-27T15:32:16.850Z,60.00
2023-08-27T15:34:46.185Z,59.00
2023-08-27T15:37:13.124Z,59.20
2023-08-27T15:39:40.091Z,58.90
2023-08-27T15:42:08.713Z,58.00
2023-08-27T15:44:41.392Z,58.80
2023-08-27T15:47:13.020Z,58.90
2023-08-27T15:49:39.989Z,58.70
2023-08-27T15:52:07.003Z,59.50
2023-08-27T15:54:36.255Z,59.20
2023-08-27T15:57:05.868Z,57.60
2023-08-27T15:59:35.581Z,58.00
2023-08-27T16:02:04.661Z,57.90
2023-08-27T16:04:31.623Z,58.30
2023-08-27T16:07:00.782Z,57.30
2023-08-27T16:09:27.804Z,56.90
2023-08-27T16:11:55.023Z,57.30
2023-08-27T16:14:21.983Z,57.00
2023-08-27T16:16:49.063Z,57.10
2023-08-27T16:19:18.161Z,57.30
2023-08-27T16:21:47.198Z,57.70
2023-08-27T16:24:17.017Z,57.40
2023-08-27T16:26:46.522Z,57.10
2023-08-27T16:29:13.472Z,58.20
2023-08-27T16:31:40.425Z,58.60
2023-08-27T16:34:07.366Z,58.50
2023-08-27T16:36:34.313Z,59.00
2023-08-27T16:39:03.540Z,59.30
2023-08-27T16:41:32.814Z,59.10
2023-08-27T16:44:00.651Z,59.40
2023-08-27T16:46:30.160Z,59.40
2023-08-27T16:48:59.475Z,59.90
2023-08-27T16:51:26.494Z,59.60
2023-08-27T16:53:53.501Z,59.70
2023-08-27T16:56:20.494Z,59.80
2023-08-27T16:58:47.520Z,59.60
2023-08-27T17:01:14.485Z,57.50
2023-08-27T17:03:41.555Z,57.70
2023-08-27T17:06:08.629Z,57.80
2023-08-27T17:08:35.698Z,56.90
2023-08-27T17:11:03.975Z,56.90
2023-08-27T17:13:35.764Z,56.20
2023-08-27T17:16:03.556Z,56.90
2023-08-27T17:18:33.523Z,57.60
2023-08-27T17:21:03.006Z,57.00
2023-08-27T17:23:32.009Z,57.10
2023-08-27T17:26:01.331Z,57.50
2023-08-27T17:28:28.283Z,58.20
2023-08-27T17:30:57.066Z,58.90
2023-08-27T17:33:26.508Z,59.00
2023-08-27T17:35:53.598Z,59.20
2023-08-27T17:38:20.807Z,59.20
2023-08-27T17:40:56.427Z,59.70
2023-08-27T17:43:24.043Z,58.40
2023-08-27T17:45:53.254Z,59.00
2023-08-27T17:48:22.534Z,59.10
2023-08-27T17:50:49.579Z,58.90
2023-08-27T17:53:21.122Z,59.40
2023-08-27T17:55:53.727Z,60.40
2023-08-27T17:58:27.635Z,60.10
2023-08-27T18:00:59.430Z,59.30
2023-08-27T18:03:28.816Z,59.40
2023-08-27T18:05:55.856Z,61.00
2023-08-27T18:08:25.011Z,59.80
2023-08-27T18:10:52.211Z,60.60
2023-08-27T18:13:19.235Z,61.30
2023-08-27T18:15:46.235Z,61.00
2023-08-27T18:18:13.356Z,62.20
2023-08-27T18:20:40.430Z,61.40
2023-08-27T18:23:07.406Z,60.70
2023-08-27T18:25:36.913Z,60.50
2023-08-27T18:28:07.272Z,60.20
2023-08-27T18:30:39.117Z,59.80
2023-08-27T18:33:10.540Z,60.80
2023-08-27T18:35:39.991Z,58.90
2023-08-27T18:38:11.278Z,58.70
2023-08-27T18:40:38.219Z,58.90
2023-08-27T18:43:05.429Z,58.50
2023-08-27T18:45:32.649Z,58.50
2023-08-27T18:48:00.159Z,59.20
2023-08-27T18:50:29.976Z,58.60
2023-08-27T18:52:59.278Z,59.00
2023-08-27T18:55:26.308Z,58.30
2023-08-27T18:57:56.107Z,58.60
2023-08-27T19:00:25.341Z,58.70
2023-08-27T19:02:52.765Z,58.40
2023-08-27T19:05:19.802Z,58.20
2023-08-27T19:07:48.963Z,59.00
2023-08-27T19:10:20.291Z,58.60
2023-08-27T19:12:49.332Z,58.80
2023-08-27T19:15:16.379Z,59.20
2023-08-27T19:17:48.314Z,59.30
2023-08-27T19:20:15.327Z,59.30
2023-08-27T19:22:46.863Z,59.60
2023-08-27T19:25:13.872Z,59.80
2023-08-27T19:27:40.913Z,59.60
2023-08-27T19:30:11.413Z,59.90
2023-08-27T19:32:40.711Z,60.00
2023-08-27T19:35:10.368Z,60.10
2023-08-27T19:37:39.836Z,61.20
2023-08-27T19:40:08.463Z,60.90
2023-08-27T19:42:37.876Z,61.00
2023-08-27T19:45:10.308Z,62.10
2023-08-27T19:47:37.618Z,61.40
2023-08-27T19:50:05.092Z,62.00
2023-08-27T19:52:34.533Z,63.70
2023-08-27T19:55:04.251Z,65.00
2023-08-27T19:57:34.035Z,65.50
2023-08-27T20:00:01.039Z,63.70
2023-08-27T20:02:30.485Z,64.70
2023-08-27T20:04:57.581Z,65.10
2023-08-27T20:07:27.058Z,65.20
2023-08-27T20:09:57.480Z,64.90
2023-08-27T20:12:24.528Z,65.60
2023-08-27T20:14:56.394Z,65.10
2023-08-27T20:17:23.375Z,65.30
2023-08-27T20:19:52.691Z,64.00
2023-08-27T20:22:19.746Z,65.20
2023-08-27T20:24:47.804Z,64.00
2023-08-27T20:27:19.606Z,63.90
2023-08-27T20:29:46.664Z,64.00
2023-08-27T20:32:13.657Z,63.60
2023-08-27T20:34:42.861Z,63.90
2023-08-27T20:37:14.811Z,64.00
2023-08-27T20:39:47.049Z,63.70
2023-08-27T20:42:14.732Z,64.10
2023-08-27T20:44:43.857Z,64.00
2023-08-27T20:47:17.774Z,64.20
2023-08-27T20:49:49.699Z,64.40
2023-08-27T20:52:19.140Z,64.40
2023-08-27T20:54:48.167Z,64.30
2023-08-27T20:57:17.907Z,64.60
2023-08-27T20:59:45.109Z,64.60
2023-08-27T21:02:15.737Z,64.60
2023-08-27T21:04:45.202Z,64.60
2023-08-27T21:07:12.248Z,65.00
2023-08-27T21:09:39.237Z,65.00
2023-08-27T21:12:06.545Z,65.60
2023-08-27T21:14:36.133Z,65.10
2023-08-27T21:17:03.191Z,65.30
2023-08-27T21:19:32.182Z,65.10
2023-08-27T21:21:59.304Z,65.20
2023-08-27T21:24:28.655Z,65.30
2023-08-27T21:27:01.068Z,65.30
2023-08-27T21:29:30.625Z,65.30
2023-08-27T21:31:57.711Z,65.40
2023-08-27T21:34:24.746Z,65.20
2023-08-27T21:36:54.277Z,65.30
2023-08-27T21:39:23.790Z,65.40
2023-08-27T21:41:51.100Z,65.60
2023-08-27T21:44:18.074Z,65.50
2023-08-27T21:46:49.810Z,65.60
2023-08-27T21:49:19.119Z,65.80
2023-08-27T21:51:50.802Z,66.00
2023-08-27T21:54:17.801Z,66.40
2023-08-27T21:56:47.034Z,66.20
2023-08-27T21:59:16.784Z,66.50
2023-08-27T22:01:46.057Z,66.60
2023-08-27T22:04:18.055Z,66.80
2023-08-27T22:06:47.523Z,67.10
2023-08-27T22:09:14.484Z,67.30
2023-08-27T22:11:43.586Z,67.70
2023-08-27T22:14:12.757Z,68.10
2023-08-27T22:16:40.128Z,68.50
2023-08-27T22:19:21.854Z,69.00
2023-08-27T22:21:50.743Z,69.50
2023-08-27T22:24:17.701Z,69.80
2023-08-27T22:26:47.153Z,70.00
2023-08-27T22:29:14.206Z,70.20
2023-08-27T22:31:43.655Z,70.60
2023-08-27T22:34:12.742Z,71.20
2023-08-27T22:36:39.754Z,72.40
2023-08-27T22:39:08.993Z,72.00
2023-08-27T22:41:36.003Z,72.10
2023-08-27T22:44:05.113Z,72.30
2023-08-27T22:46:34.264Z,73.20
2023-08-27T22:49:01.319Z,73.40
2023-08-27T22:51:30.852Z,73.90
2023-08-27T22:53:57.921Z,74.50
2023-08-27T22:56:27.096Z,75.00
2023-08-27T22:58:54.098Z,75.40
2023-08-27T23:01:23.583Z,75.60
2023-08-27T23:03:55.299Z,76.20
2023-08-27T23:06:24.630Z,76.50
2023-08-27T23:08:59.342Z,76.70
2023-08-27T23:11:26.208Z,77.10
2023-08-27T23:13:53.169Z,77.60
2023-08-27T23:16:20.257Z,77.70
2023-08-27T23:18:49.837Z,77.90
2023-08-27T23:21:17.194Z,78.00
2023-08-27T23:23:44.182Z,78.40
2023-08-27T23:26:13.439Z,78.60
2023-08-27T23:28:42.453Z,78.60
2023-08-27T23:31:09.486Z,78.90
2023-08-27T23:33:39.500Z,79.10
2023-08-27T23:36:10.660Z,79.20
2023-08-27T23:38:39.876Z,79.10
2023-08-27T23:41:06.900Z,79.30
2023-08-27T23:43:33.967Z,79.60
2023-08-27T23:46:05.449Z,79.50
2023-08-27T23:48:37.169Z,79.80
2023-08-27T23:51:04.204Z,79.70
2023-08-27T23:53:33.335Z,80.10
2023-08-27T23:56:00.354Z,80.00
2023-08-27T23:58:30.366Z,80.30
